Atlanta, GA (30301)

8:58 AM EST on February 10, 2016 (GMT -0500)
Chastain | | Change Station
CLOSE
Current Station
Personal Weather Station
Location: Atlanta, GA
Elevation: 905 ft
Nearby Weather Stations
Active Advisory: Special Statement

Elev 905 ft 33.87 °N, 84.40 °W | Updated 38 seconds ago

Overcast
Overcast
23.9 °F
Feels Like 24 °F
N
1.3
Wind Variable Wind from WNW
Gusts 3.8 mph

Today
High -- | Low -- °F
--% Chance of Precip.
Yesterday
High -- | Low -- °F
Precip. -- in
Pressure 30.19 in
Visibility 10.0 miles
Clouds Overcast 3600 ft
Windchill 24 °F
Dew Point 6 °F
Humidity 45%
Rainfall 0.00 in
Snow Depth Not available.
7:27 AM 6:16 PM
Waxing Crescent, 5% visible
METAR KPDK 101353Z 29009KT 10SM OVC036 M04/M11 A3012 RMK AO2 SLP221 T10441111
Pressure 30.19 in
Visibility 10.0 miles
Clouds Overcast 3600 ft
Windchill 24 °F
Dew Point 6 °F
Humidity 45%
Rainfall 0.00 in
Snow Depth Not available.
7:27 AM 6:16 PM
Waxing Crescent, 5% visible
METAR KPDK 101353Z 29009KT 10SM OVC036 M04/M11 A3012 RMK AO2 SLP221 T10441111

10-Day Weather Forecast

Almanac

Astronomy

Feb. 10, 2016 Rise Set
Actual Time
Civil Twilight
Nautical Twilight
Astronomical Twilight
Moon
Length of Visible Light
Length of Day
Tomorrow will be .
, % of the Moon is Illuminated

Today's Extremes

State Highs State Lows

Community

WunderPhotos

Upload Photos

1,891,845 photos uploaded!

WunderBlog® & News

Nearby

Air Quality

  Air Quality AQ Index Pollutant
Not available.

Snow Depth

Station Depth Elevation

Earthquake Activity

City Distance Mag. Time & Date
Minimum magnitude displayed is 2.5.

Coastal Water Temperatures

Place Temperature

Stations

Nearby Weather Stations

Station Location Temp. Windchill Dew Point Humidity Wind Precip. Elev Updated Type
                   

Watches & Warnings

Special Statement
Issued: 6:44 AM EST Feb. 10, 2016 – National Weather Service

... Patchy black ice possible along the Interstate 20 corridor...

Patchy black ice is possible mainly along the Interstate 20
corridor this morning. Secondary roads... bridges and overpasses
will be most prone to seeing any black ice. Motorists are urged
to use extreme caution during the morning commute.

Temperatures will rise above freezing by the early afternoon.



644 am EST Wed Feb 10 2016

... Patchy black ice possible along the Interstate 20 corridor...

Patchy black ice is possible mainly along the Interstate 20
corridor this morning. Secondary roads... bridges and overpasses
will be most prone to seeing any black ice. Motorists are urged
to use extreme caution during the morning commute.

Temperatures will rise above freezing by the early afternoon.